Time;durP1;ratioP1;P1;durP2;ratioP2;P2;SDS_P1;SDS_P2;PMS_P1;PMS_P2;Temp;Humidity;BMP_temperature;BMP_pressure;BME280_temperature;BME280_humidity;BME280_pressure;Samples;Min_cycle;Max_cycle;Signal;HPM_P1;HPM_P2
2020/12/23 00:01:18;;;;;;;126.38;65.78;;;;;;;5.37;73.87;95346.94;4154618;28;20061;-77
2020/12/23 00:03:19;;;;;;;137.15;69.80;;;;;;;5.16;75.24;95352.75;4157527;28;20049;-79
2020/12/23 00:05:20;;;;;;;132.35;68.10;;;;;;;5.10;75.02;95346.25;4160666;28;20121;-80
2020/12/23 00:07:21;;;;;;;134.23;67.78;;;;;;;5.16;74.93;95342.34;4157753;28;20467;-77
2020/12/23 00:09:23;;;;;;;129.32;65.72;;;;;;;5.17;75.06;95338.00;4159994;28;20089;-76
2020/12/23 00:11:24;;;;;;;132.70;69.10;;;;;;;5.14;74.82;95339.03;4158420;28;20103;-70
2020/12/23 00:13:25;;;;;;;130.60;67.32;;;;;;;5.10;75.31;95348.84;4158416;28;20054;-69
2020/12/23 00:15:26;;;;;;;130.35;68.32;;;;;;;5.10;75.15;95343.63;4159688;28;20053;-70
2020/12/23 00:17:28;;;;;;;125.50;66.38;;;;;;;4.88;75.37;95354.72;4159276;28;20448;-69
2020/12/23 00:19:29;;;;;;;124.80;61.92;;;;;;;4.95;75.48;95354.28;4158838;28;20053;-69
2020/12/23 00:21:33;;;;;;;120.95;63.10;;;;;;;5.04;75.52;95353.63;4158519;28;20049;-70
2020/12/23 00:23:37;;;;;;;112.07;59.30;;;;;;;5.15;74.51;95348.50;4159397;28;20507;-70
2020/12/23 00:25:39;;;;;;;116.70;56.78;;;;;;;5.23;74.67;95345.38;4156004;28;20078;-68
2020/12/23 00:27:41;;;;;;;107.10;56.17;;;;;;;5.29;74.48;95353.53;4159043;28;20041;-70
2020/12/23 00:29:42;;;;;;;109.65;57.67;;;;;;;5.38;74.13;95353.78;4156584;28;20163;-70
2020/12/23 00:31:44;;;;;;;108.90;59.85;;;;;;;5.42;73.26;95348.28;4159643;28;20059;-78
2020/12/23 00:33:46;;;;;;;115.10;57.38;;;;;;;5.45;73.65;95350.66;4184410;28;20056;-76
2020/12/23 00:35:47;;;;;;;110.13;57.50;;;;;;;5.49;73.58;95346.88;4191947;28;20507;-77
2020/12/23 00:37:48;;;;;;;111.47;56.50;;;;;;;5.51;73.65;95350.22;4175051;28;20049;-77
2020/12/23 00:39:49;;;;;;;102.18;56.10;;;;;;;5.49;73.71;95349.50;4191593;28;20129;-75
2020/12/23 00:41:52;;;;;;;104.18;56.63;;;;;;;5.52;73.15;95351.03;4192147;28;20080;-79
2020/12/23 00:43:53;;;;;;;105.40;54.15;;;;;;;5.51;72.91;95351.97;4191970;28;20357;-80
2020/12/23 00:45:54;;;;;;;95.88;52.78;;;;;;;5.53;73.21;95350.09;4193041;28;20156;-77
2020/12/23 00:47:56;;;;;;;111.90;56.42;;;;;;;5.37;73.64;95350.38;4176627;28;20103;-76
2020/12/23 00:49:57;;;;;;;108.00;56.92;;;;;;;5.33;73.79;95348.94;4193476;28;20083;-78
2020/12/23 00:51:58;;;;;;;106.45;54.90;;;;;;;5.37;73.54;95347.78;4193013;28;20044;-78
2020/12/23 00:54:00;;;;;;;108.07;55.35;;;;;;;5.39;73.64;95339.88;4192840;28;20053;-77
2020/12/23 00:56:01;;;;;;;111.45;55.22;;;;;;;5.42;73.51;95345.69;4191561;28;20239;-77
2020/12/23 00:58:02;;;;;;;109.18;56.78;;;;;;;5.48;73.63;95347.00;4191561;28;20049;-76
2020/12/23 01:00:05;;;;;;;107.05;55.55;;;;;;;5.50;73.19;95334.72;4188903;28;20051;-78
2020/12/23 01:02:06;;;;;;;99.38;55.40;;;;;;;5.55;73.22;95340.44;4191500;28;20234;-76
2020/12/23 01:04:07;;;;;;;104.82;55.95;;;;;;;5.59;73.02;95330.63;4191220;28;20058;-69
2020/12/23 01:06:09;;;;;;;107.75;56.65;;;;;;;5.66;72.80;95337.84;4191521;28;20415;-69
2020/12/23 01:08:11;;;;;;;106.35;56.95;;;;;;;5.68;72.54;95330.78;4173583;28;20198;-69
2020/12/23 01:10:12;;;;;;;104.28;54.22;;;;;;;5.67;72.56;95323.91;4173700;28;20052;-69
2020/12/23 01:12:13;;;;;;;107.88;56.28;;;;;;;5.69;72.98;95322.03;4191409;28;20052;-68
2020/12/23 01:14:17;;;;;;;101.30;53.42;;;;;;;5.63;73.11;95325.06;4172439;28;20053;-71
2020/12/23 01:16:21;;;;;;;;;;;;;;;5.52;73.19;95332.84;4191501;28;20058;-77
2020/12/23 01:18:23;;;;;;;110.65;54.17;;;;;;;5.41;73.12;95331.03;4158055;28;19929;-78
2020/12/23 01:20:24;;;;;;;97.18;55.33;;;;;;;5.27;73.87;95333.78;4174178;28;20048;-76
2020/12/23 01:22:25;;;;;;;109.80;55.80;;;;;;;5.26;73.75;95337.34;4190857;28;20499;-78
2020/12/23 01:24:26;;;;;;;104.78;56.38;;;;;;;5.18;74.42;95337.06;4191282;28;20416;-78
2020/12/23 01:26:27;;;;;;;108.60;56.15;;;;;;;5.09;74.73;95335.94;4172245;28;20044;-80
2020/12/23 01:28:28;;;;;;;112.97;57.90;;;;;;;5.09;74.53;95336.78;4192149;28;20057;-79
2020/12/23 01:30:30;;;;;;;105.32;55.63;;;;;;;5.14;75.23;95333.84;4190543;28;20368;-77
2020/12/23 01:32:32;;;;;;;103.40;56.90;;;;;;;5.17;74.68;95340.59;4174540;28;20059;-77
2020/12/23 01:34:34;;;;;;;103.85;54.85;;;;;;;5.23;74.17;95328.00;4192202;28;20048;-77
2020/12/23 01:36:35;;;;;;;105.20;55.00;;;;;;;5.31;74.63;95336.06;4191796;28;20052;-79
2020/12/23 01:38:36;;;;;;;102.50;54.05;;;;;;;5.44;74.04;95322.16;4173802;28;20127;-75
2020/12/23 01:40:38;;;;;;;99.80;54.95;;;;;;;5.51;73.75;95318.19;4192461;28;20063;-77
2020/12/23 01:42:39;;;;;;;105.80;53.58;;;;;;;5.57;73.24;95314.31;4173813;28;20176;-77
2020/12/23 01:44:40;;;;;;;106.25;53.70;;;;;;;5.64;73.44;95305.94;4190213;28;20056;-76
2020/12/23 01:46:42;;;;;;;98.78;53.10;;;;;;;5.68;73.05;95307.38;4173878;28;20055;-75
2020/12/23 01:48:43;;;;;;;99.22;53.10;;;;;;;5.68;72.98;95302.19;4158582;28;20547;-77
2020/12/23 01:50:45;;;;;;;104.28;54.20;;;;;;;5.71;73.12;95301.94;4190251;28;20048;-76
2020/12/23 01:52:46;;;;;;;98.95;53.85;;;;;;;5.71;72.63;95296.75;4174293;28;20055;-76
2020/12/23 01:54:48;;;;;;;107.05;54.42;;;;;;;5.70;72.74;95305.50;4172392;28;20064;-77
2020/12/23 01:56:50;;;;;;;103.57;55.97;;;;;;;5.76;72.68;95299.00;4176521;28;20049;-77
2020/12/23 01:58:51;;;;;;;106.30;57.95;;;;;;;5.79;72.38;95297.97;4184920;28;20080;-76
2020/12/23 02:00:53;;;;;;;111.30;60.20;;;;;;;5.72;72.54;95290.63;4186710;28;20059;-77
2020/12/23 02:02:58;;;;;;;115.93;60.95;;;;;;;5.68;73.33;95293.56;4172812;28;20049;-76
2020/12/23 02:05:04;;;;;;;109.45;62.58;;;;;;;5.69;72.97;95283.03;4173181;28;20093;-78
2020/12/23 02:07:05;;;;;;;110.45;62.08;;;;;;;5.72;72.73;95287.16;4177626;28;20515;-69
2020/12/23 02:09:07;;;;;;;109.38;61.90;;;;;;;5.52;73.47;95286.06;4173698;28;20780;-70
2020/12/23 02:11:13;;;;;;;114.57;58.92;;;;;;;5.48;73.28;95295.03;4172805;28;20050;-71
2020/12/23 02:13:14;;;;;;;110.40;60.33;;;;;;;5.48;73.40;95284.63;4171567;28;20503;-70
2020/12/23 02:15:16;;;;;;;113.38;58.40;;;;;;;5.50;73.53;95287.94;4185752;28;20049;-69
2020/12/23 02:17:17;;;;;;;106.38;58.35;;;;;;;5.57;73.66;95299.56;4190700;28;20486;-68
2020/12/23 02:19:18;;;;;;;115.63;59.33;;;;;;;5.60;73.02;95285.50;4191723;28;20142;-70
2020/12/23 02:21:20;;;;;;;109.85;61.72;;;;;;;5.60;73.07;95288.91;4155825;28;20076;-69
2020/12/23 02:23:21;;;;;;;109.30;59.20;;;;;;;5.60;72.84;95281.13;4191054;28;20531;-70
2020/12/23 02:25:22;;;;;;;111.20;59.00;;;;;;;5.62;73.10;95287.03;4171589;28;20543;-69
2020/12/23 02:27:24;;;;;;;111.10;59.13;;;;;;;5.64;73.24;95286.94;4196277;28;20048;-68
2020/12/23 02:29:25;;;;;;;119.13;59.05;;;;;;;5.67;73.60;95284.91;4190760;28;20113;-69
2020/12/23 02:31:45;;;;;;;110.80;58.30;;;;;;;5.53;74.08;95280.75;4197439;28;20044;-69
2020/12/23 02:33:49;;;;;;;113.32;59.05;;;;;;;5.52;74.02;95275.66;4166276;28;20114;-68
2020/12/23 02:35:50;;;;;;;112.22;59.58;;;;;;;5.53;73.70;95285.13;4194615;28;20384;-69
2020/12/23 02:37:52;;;;;;;112.60;61.25;;;;;;;5.52;73.53;95278.25;4194547;28;20385;-69
2020/12/23 02:39:54;;;;;;;109.57;59.92;;;;;;;5.53;73.44;95280.75;4194198;28;20074;-70
2020/12/23 02:41:57;;;;;;;111.53;58.05;;;;;;;5.59;73.62;95273.44;4176154;28;20069;-69
2020/12/23 02:43:58;;;;;;;113.40;60.47;;;;;;;5.64;73.29;95269.56;4175191;28;20550;-69
2020/12/23 02:46:00;;;;;;;112.13;60.47;;;;;;;5.62;73.91;95278.41;4193432;28;20079;-68
2020/12/23 02:48:01;;;;;;;114.65;61.42;;;;;;;5.62;74.20;95271.44;4177345;28;20464;-68
2020/12/23 02:50:02;;;;;;;116.53;61.10;;;;;;;5.66;73.38;95265.06;4175708;28;20053;-70
2020/12/23 02:52:03;;;;;;;118.80;61.63;;;;;;;5.69;73.34;95272.63;4194463;28;20463;-69
2020/12/23 02:54:05;;;;;;;122.35;61.50;;;;;;;5.73;73.16;95273.25;4194250;28;20330;-70
2020/12/23 02:56:06;;;;;;;116.60;62.15;;;;;;;5.74;72.84;95277.47;4191318;28;20087;-69
2020/12/23 02:58:07;;;;;;;112.80;61.60;;;;;;;5.71;73.08;95273.34;4175492;28;20067;-69
2020/12/23 03:00:08;;;;;;;113.18;62.53;;;;;;;5.72;73.22;95272.41;4191142;28;20052;-70
2020/12/23 03:02:10;;;;;;;132.13;64.43;;;;;;;5.67;73.18;95269.31;4193240;28;20471;-69
2020/12/23 03:04:11;;;;;;;113.68;63.72;;;;;;;5.63;73.72;95273.09;4192514;28;20092;-69
2020/12/23 03:06:13;;;;;;;116.30;64.35;;;;;;;5.56;73.78;95271.91;4192985;28;20129;-68
2020/12/23 03:08:14;;;;;;;120.20;64.50;;;;;;;5.36;74.26;95272.56;4193121;28;20048;-69
2020/12/23 03:10:15;;;;;;;115.03;61.90;;;;;;;5.27;74.83;95276.63;4190991;28;20083;-69
2020/12/23 03:12:17;;;;;;;113.30;61.67;;;;;;;5.31;74.67;95262.47;4181622;28;20048;-68
2020/12/23 03:14:18;;;;;;;119.38;60.47;;;;;;;5.38;74.00;95281.03;4192135;28;20144;-69
2020/12/23 03:16:19;;;;;;;116.05;62.65;;;;;;;5.24;74.83;95282.06;4193939;28;20106;-69
2020/12/23 03:18:20;;;;;;;113.22;60.78;;;;;;;5.23;75.36;95280.44;4192877;28;20098;-69
2020/12/23 03:20:21;;;;;;;110.60;61.78;;;;;;;5.29;75.12;95280.81;4189521;28;20060;-69
2020/12/23 03:22:23;;;;;;;116.10;62.17;;;;;;;5.43;74.52;95279.78;4192587;28;20056;-69
2020/12/23 03:24:24;;;;;;;110.63;61.28;;;;;;;5.49;74.72;95283.69;4193149;28;20118;-69
2020/12/23 03:26:25;;;;;;;117.30;62.85;;;;;;;5.56;74.10;95282.28;4192991;28;20407;-69
2020/12/23 03:28:27;;;;;;;108.45;60.78;;;;;;;5.64;73.65;95289.53;4190740;28;20430;-70
2020/12/23 03:30:28;;;;;;;120.68;62.92;;;;;;;5.66;73.59;95283.28;4193070;28;20445;-68
2020/12/23 03:32:29;;;;;;;113.00;60.75;;;;;;;5.67;73.46;95282.31;4192951;28;20055;-68
2020/12/23 03:34:30;;;;;;;109.78;60.25;;;;;;;5.68;73.42;95285.75;4170230;28;20075;-68
2020/12/23 03:36:32;;;;;;;129.88;64.28;;;;;;;5.71;73.25;95280.31;4198179;28;20052;-69
2020/12/23 03:38:33;;;;;;;113.57;63.08;;;;;;;5.68;73.13;95281.38;4200386;28;20056;-69
2020/12/23 03:40:34;;;;;;;115.93;62.25;;;;;;;5.72;73.31;95277.63;4175181;28;20463;-69
2020/12/23 03:42:35;;;;;;;113.30;61.78;;;;;;;5.76;73.06;95286.00;4192613;28;20565;-68
2020/12/23 03:44:37;;;;;;;111.15;61.25;;;;;;;5.75;73.57;95287.78;4174285;28;20056;-69
2020/12/23 03:46:38;;;;;;;113.35;62.22;;;;;;;5.78;73.13;95297.09;4192927;28;20048;-69
2020/12/23 03:48:39;;;;;;;114.22;61.40;;;;;;;5.78;73.44;95301.50;4192965;28;20052;-70
2020/12/23 03:50:41;;;;;;;113.60;59.42;;;;;;;5.71;73.52;95293.31;4159024;28;20091;-68
2020/12/23 03:52:42;;;;;;;112.63;61.63;;;;;;;5.66;73.68;95291.06;4163464;28;20093;-68
2020/12/23 03:54:43;;;;;;;125.05;62.80;;;;;;;5.67;73.63;95286.69;4196883;28;20048;-70
2020/12/23 03:56:44;;;;;;;108.75;61.20;;;;;;;5.70;73.49;95289.03;4181106;28;20214;-68
2020/12/23 03:58:46;;;;;;;111.43;61.53;;;;;;;5.76;73.80;95293.78;4201596;28;20056;-69
2020/12/23 04:00:47;;;;;;;106.32;59.88;;;;;;;5.78;73.83;95296.28;4193849;28;20053;-68
2020/12/23 04:02:48;;;;;;;112.60;59.78;;;;;;;5.84;73.16;95298.44;4186716;28;20051;-69
2020/12/23 04:04:49;;;;;;;100.25;56.05;;;;;;;5.80;73.47;95295.22;4193572;28;20052;-70
2020/12/23 04:06:51;;;;;;;108.38;56.97;;;;;;;5.62;73.36;95299.22;4193250;28;20125;-71
2020/12/23 04:08:52;;;;;;;105.95;56.72;;;;;;;5.52;74.39;95296.44;4188045;28;20045;-69
2020/12/23 04:10:53;;;;;;;104.35;57.47;;;;;;;5.50;74.69;95290.53;4192450;28;20058;-77
2020/12/23 04:12:54;;;;;;;102.97;57.08;;;;;;;5.54;74.61;95294.56;4174012;28;20049;-77
2020/12/23 04:14:55;;;;;;;111.15;54.67;;;;;;;5.43;74.27;95292.75;4195249;28;20060;-77
2020/12/23 04:16:57;;;;;;;97.60;52.40;;;;;;;5.49;74.45;95287.13;4199604;28;20059;-77
2020/12/23 04:18:58;;;;;;;91.35;52.10;;;;;;;5.57;73.79;95294.38;4193188;28;20059;-77
2020/12/23 04:20:59;;;;;;;91.90;51.92;;;;;;;5.58;73.96;95306.41;4198056;28;20040;-77
2020/12/23 04:23:00;;;;;;;91.60;52.65;;;;;;;5.56;74.52;95295.28;4192819;28;20052;-76
2020/12/23 04:25:05;;;;;;;97.55;50.40;;;;;;;5.60;73.61;95290.69;4195190;28;20070;-77
2020/12/23 04:27:06;;;;;;;96.38;53.33;;;;;;;5.67;74.14;95291.88;4193750;28;20072;-76
2020/12/23 04:29:08;;;;;;;99.35;53.20;;;;;;;5.62;73.89;95292.25;4187175;28;20508;-76
2020/12/23 04:31:09;;;;;;;99.00;52.17;;;;;;;5.63;74.05;95290.47;4198027;28;20127;-75
2020/12/23 04:33:10;;;;;;;94.90;50.90;;;;;;;5.64;74.09;95295.56;4192330;28;20049;-78
2020/12/23 04:35:31;;;;;;;92.78;52.10;;;;;;;5.59;73.86;95299.41;4185392;28;20072;-76
2020/12/23 04:37:34;;;;;;;107.18;51.75;;;;;;;5.38;74.80;95307.03;4173628;28;20091;-69
2020/12/23 04:39:35;;;;;;;102.03;54.65;;;;;;;5.48;74.84;95305.41;4187740;28;20053;-69
2020/12/23 04:41:36;;;;;;;99.03;52.63;;;;;;;5.59;74.79;95312.41;4191684;28;20052;-68
2020/12/23 04:43:38;;;;;;;94.75;51.53;;;;;;;5.62;74.46;95310.44;4191037;28;20186;-69
2020/12/23 04:45:39;;;;;;;93.70;51.33;;;;;;;5.58;74.11;95316.78;4160663;28;20060;-68
2020/12/23 04:47:40;;;;;;;83.63;47.55;;;;;;;5.59;74.51;95312.41;4172852;28;20138;-69
2020/12/23 04:49:45;;;;;;;89.65;49.58;;;;;;;5.63;74.45;95309.47;4183683;28;20056;-68
2020/12/23 04:51:51;;;;;;;91.80;47.95;;;;;;;5.73;73.94;95299.22;4192133;28;20418;-68
2020/12/23 04:53:53;;;;;;;82.53;45.83;;;;;;;5.72;74.18;95303.63;4174724;28;20053;-70
2020/12/23 04:55:55;;;;;;;77.00;43.63;;;;;;;5.64;74.37;95287.75;4177232;28;20496;-69
2020/12/23 04:57:56;;;;;;;83.78;45.55;;;;;;;5.68;73.79;95285.75;4204474;28;20093;-70
2020/12/23 04:59:58;;;;;;;85.90;45.25;;;;;;;5.73;74.25;95289.66;4196340;28;20043;-69
2020/12/23 05:02:01;;;;;;;81.00;44.72;;;;;;;5.80;73.62;95290.03;4209080;28;20059;-68
2020/12/23 05:04:02;;;;;;;80.88;46.00;;;;;;;5.84;74.40;95286.25;4194608;28;20052;-68
2020/12/23 05:06:06;;;;;;;87.97;47.17;;;;;;;5.89;73.49;95296.31;4173797;28;20053;-68
2020/12/23 05:08:08;;;;;;;90.97;46.30;;;;;;;5.95;73.23;95303.66;4176855;28;20051;-69
2020/12/23 05:10:09;;;;;;;80.53;46.10;;;;;;;6.01;73.44;95302.41;4199700;28;20148;-70
2020/12/23 05:12:11;;;;;;;82.75;46.47;;;;;;;6.05;72.58;95302.03;4194412;28;20082;-68
2020/12/23 05:14:12;;;;;;;93.15;47.58;;;;;;;6.09;72.77;95300.88;4183508;28;20127;-68
2020/12/23 05:16:24;;;;;;;86.63;46.45;;;;;;;6.06;72.27;95302.88;4177459;28;20067;-69
2020/12/23 05:18:32;;;;;;;79.35;44.28;;;;;;;6.08;72.94;95300.97;4178815;28;20041;-68
2020/12/23 05:20:33;;;;;;;81.68;44.85;;;;;;;6.11;72.64;95308.56;4173361;28;20135;-69
2020/12/23 05:22:35;;;;;;;74.80;40.33;;;;;;;6.07;72.17;95301.94;4196092;28;20051;-69
2020/12/23 05:24:38;;;;;;;76.95;42.28;;;;;;;6.06;72.49;95300.25;4168596;28;20393;-69
2020/12/23 05:26:41;;;;;;;71.03;39.23;;;;;;;6.08;72.83;95306.19;4165636;28;20049;-70
2020/12/23 05:28:44;;;;;;;73.55;42.22;;;;;;;6.07;72.73;95301.94;4187945;28;20048;-69
2020/12/23 05:30:45;;;;;;;75.03;43.88;;;;;;;6.09;72.75;95307.84;4189664;28;20052;-69
2020/12/23 05:32:47;;;;;;;81.35;43.83;;;;;;;6.09;72.58;95300.88;4173258;28;20053;-68
2020/12/23 05:34:49;;;;;;;78.07;43.42;;;;;;;6.09;72.48;95300.88;4161625;28;20173;-78
2020/12/23 05:36:51;;;;;;;79.85;41.50;;;;;;;6.12;72.07;95303.22;4173508;28;20057;-78
2020/12/23 05:38:52;;;;;;;81.22;44.00;;;;;;;6.12;72.57;95310.19;4200594;28;20060;-76
2020/12/23 05:40:54;;;;;;;76.32;43.15;;;;;;;6.15;72.42;95304.75;4200574;28;20138;-69
2020/12/23 05:42:56;;;;;;;85.82;43.22;;;;;;;6.14;72.08;95303.94;4189812;28;20063;-70
2020/12/23 05:44:57;;;;;;;73.95;41.53;;;;;;;5.99;72.34;95307.69;4172977;28;20091;-70
2020/12/23 05:46:59;;;;;;;79.35;42.15;;;;;;;5.97;72.71;95311.38;4172986;28;20053;-69
2020/12/23 05:49:00;;;;;;;75.25;42.53;;;;;;;6.02;72.86;95319.63;4191174;28;20383;-68
2020/12/23 05:51:03;;;;;;;173.73;98.47;;;;;;;6.04;72.56;95320.34;4173212;28;20147;-69
2020/12/23 05:53:12;;;;;;;238.63;139.60;;;;;;;6.05;72.78;95325.44;4185461;28;20049;-68
2020/12/23 05:55:15;;;;;;;108.00;61.92;;;;;;;6.06;72.85;95327.09;4191223;28;20049;-70
2020/12/23 05:57:17;;;;;;;92.63;52.30;;;;;;;6.09;72.65;95329.47;4182137;28;20052;-69
2020/12/23 05:59:19;;;;;;;84.72;46.92;;;;;;;6.12;72.56;95329.22;4186586;28;20052;-69
2020/12/23 06:01:22;;;;;;;77.50;43.60;;;;;;;6.18;72.89;95334.94;4190809;28;20051;-68
2020/12/23 06:03:28;;;;;;;73.07;41.93;;;;;;;6.22;72.09;95334.56;4194509;28;20048;-76
2020/12/23 06:05:32;;;;;;;75.60;43.22;;;;;;;6.27;72.77;95331.63;4187754;28;20052;-77
2020/12/23 06:07:33;;;;;;;;;;;;;;;6.28;72.39;95335.88;4173413;28;20103;-77
2020/12/23 06:09:39;;;;;;;84.45;48.60;;;;;;;6.25;72.01;95330.91;4192639;28;19944;-78
2020/12/23 06:11:45;;;;;;;129.68;70.72;;;;;;;6.27;72.03;95336.81;4194224;28;20510;-77
2020/12/23 06:14:07;;;;;;;109.80;55.63;;;;;;;6.25;73.08;95333.50;4194333;28;20078;-78
2020/12/23 06:16:10;;;;;;;74.65;42.40;;;;;;;6.29;72.04;95327.13;4202763;28;20127;-78
2020/12/23 06:18:16;;;;;;;74.47;40.53;;;;;;;6.30;72.37;95333.97;4177654;28;20091;-77
2020/12/23 06:20:18;;;;;;;70.95;39.20;;;;;;;6.35;72.45;95337.06;4186641;28;20462;-77
2020/12/23 06:22:22;;;;;;;75.05;41.40;;;;;;;6.32;72.31;95345.94;4188867;28;20406;-76
2020/12/23 06:24:24;;;;;;;;;;;;;;;6.24;71.81;95340.50;4177226;28;20480;-76
2020/12/23 06:26:29;;;;;;;71.32;38.22;;;;;;;6.21;72.45;95345.91;4189354;28;19954;-76
2020/12/23 06:28:35;;;;;;;71.18;38.90;;;;;;;6.21;72.57;95345.09;4185111;28;20143;-77
2020/12/23 06:30:40;;;;;;;75.20;40.15;;;;;;;6.21;72.17;95342.50;4175514;28;20091;-77
2020/12/23 06:32:41;;;;;;;68.82;39.45;;;;;;;6.24;72.72;95344.84;4176755;28;20057;-74
2020/12/23 06:34:42;;;;;;;73.22;38.80;;;;;;;6.28;72.67;95349.72;4180188;28;20052;-79
2020/12/23 06:36:53;;;;;;;68.43;39.97;;;;;;;6.33;72.11;95341.56;4175917;28;20571;-79
2020/12/23 06:39:39;;;;;;;76.15;40.08;;;;;;;6.41;71.86;95340.97;4184047;28;20051;-79
2020/12/23 06:41:41;;;;;;;74.15;40.38;;;;;;;6.45;72.34;95347.59;4169554;28;20059;-78
2020/12/23 06:43:55;;;;;;;63.50;36.47;;;;;;;6.41;72.33;95347.03;4176133;28;20454;-78
2020/12/23 06:45:56;;;;;;;71.53;38.35;;;;;;;6.45;72.21;95347.59;4165606;28;20145;-78
2020/12/23 06:48:14;;;;;;;74.82;39.70;;;;;;;6.47;72.47;95338.72;4186688;28;20045;-77
2020/12/23 06:50:30;;;;;;;70.97;37.75;;;;;;;6.52;72.06;95343.59;4177270;28;20044;-76
2020/12/23 06:52:38;;;;;;;64.13;34.95;;;;;;;6.56;72.01;95342.41;4165853;28;20148;-78
2020/12/23 06:55:07;;;;;;;68.55;36.33;;;;;;;6.62;71.74;95356.72;4171153;28;20055;-77
2020/12/23 06:57:08;;;;;;;68.95;37.05;;;;;;;6.63;71.52;95354.00;4174813;28;20474;-76
2020/12/23 06:59:45;;;;;;;64.65;36.03;;;;;;;6.65;71.71;95352.09;4161977;28;20495;-77
2020/12/23 07:01:46;;;;;;;60.63;36.70;;;;;;;6.66;71.35;95360.72;4175503;28;20143;-82
2020/12/23 07:03:48;;;;;;;71.30;38.10;;;;;;;6.64;71.33;95366.06;4183687;28;20451;-78
2020/12/23 07:05:49;;;;;;;74.18;37.55;;;;;;;6.60;71.57;95364.63;4176531;28;20055;-79
2020/12/23 07:08:12;;;;;;;66.28;37.30;;;;;;;6.63;71.43;95366.19;4188225;28;20498;-80
2020/12/23 07:10:15;;;;;;;59.55;37.05;;;;;;;6.67;71.44;95370.22;4177264;28;20515;-77
2020/12/23 07:12:17;;;;;;;67.97;37.58;;;;;;;6.65;71.55;95369.50;4176520;28;20049;-79
2020/12/23 07:14:20;;;;;;;64.45;36.58;;;;;;;6.62;71.42;95385.34;4176027;28;20132;-79
2020/12/23 07:16:22;;;;;;;66.10;37.67;;;;;;;6.56;71.73;95384.06;4177041;28;20053;-79
2020/12/23 07:18:28;;;;;;;66.53;34.88;;;;;;;6.56;72.25;95387.50;4172119;28;20140;-79
2020/12/23 07:20:32;;;;;;;72.75;36.42;;;;;;;6.58;72.13;95389.94;4188161;28;20157;-80
2020/12/23 07:22:36;;;;;;;65.72;37.38;;;;;;;6.65;72.20;95385.13;4176101;28;20059;-77
2020/12/23 07:24:39;;;;;;;71.80;37.13;;;;;;;6.74;72.10;95384.41;4181024;28;20052;-79
2020/12/23 07:26:40;;;;;;;61.90;34.95;;;;;;;6.83;71.72;95375.88;4182925;28;20068;-77
2020/12/23 07:28:42;;;;;;;80.30;37.10;;;;;;;6.88;71.48;95370.31;4183997;28;20056;-77
2020/12/23 07:30:43;;;;;;;66.65;36.85;;;;;;;6.95;71.35;95368.91;4176447;28;20051;-79
2020/12/23 07:33:00;;;;;;;66.82;36.17;;;;;;;6.98;70.99;95374.66;4184598;28;20478;-79
2020/12/23 07:35:04;;;;;;;69.45;36.92;;;;;;;7.05;71.26;95376.78;4160540;28;20060;-80
2020/12/23 07:37:05;;;;;;;76.35;42.30;;;;;;;7.08;70.89;95377.41;4159414;28;20133;-79
2020/12/23 07:39:07;;;;;;;106.90;63.25;;;;;;;7.13;71.04;95374.41;4142024;28;20052;-80
2020/12/23 07:41:12;;;;;;;67.28;41.20;;;;;;;7.16;70.93;95372.41;4158326;28;20045;-78
2020/12/23 07:43:14;;;;;;;68.03;39.05;;;;;;;6.99;71.18;95378.13;4158800;28;20247;-78
2020/12/23 07:45:16;;;;;;;74.43;41.55;;;;;;;6.98;71.61;95374.66;4160253;28;20120;-79
2020/12/23 07:47:23;;;;;;;76.93;39.20;;;;;;;7.04;71.58;95369.94;4160225;28;20100;-77
2020/12/23 07:49:28;;;;;;;65.53;38.15;;;;;;;7.10;71.33;95379.88;4147156;28;20054;-78
2020/12/23 07:51:29;;;;;;;61.88;38.20;;;;;;;7.19;71.58;95368.72;4160752;28;20107;-79
2020/12/23 07:53:30;;;;;;;61.67;36.70;;;;;;;7.25;71.50;95370.84;4159333;28;20053;-78
2020/12/23 07:55:32;;;;;;;61.10;34.38;;;;;;;7.27;71.01;95375.91;4155062;28;20065;-71
2020/12/23 07:57:33;;;;;;;59.38;34.58;;;;;;;7.33;71.01;95359.78;4152672;28;20094;-71
2020/12/23 07:59:34;;;;;;;82.03;34.22;;;;;;;7.37;70.83;95361.22;4152853;28;20203;-69
2020/12/23 08:01:35;;;;;;;62.00;33.00;;;;;;;7.31;71.56;95366.91;4159122;28;20059;-71
2020/12/23 08:03:36;;;;;;;54.92;29.08;;;;;;;7.41;71.21;95373.03;4190724;28;20048;-69
2020/12/23 08:05:39;;;;;;;47.60;25.17;;;;;;;7.48;71.79;95369.00;4158977;28;20055;-70
2020/12/23 08:07:51;;;;;;;41.85;24.83;;;;;;;7.62;71.39;95375.72;4180429;28;20049;-68
2020/12/23 08:09:52;;;;;;;49.28;26.42;;;;;;;7.72;71.14;95371.41;4157724;28;20141;-70
2020/12/23 08:11:54;;;;;;;34.22;21.08;;;;;;;7.89;71.12;95375.22;4157080;28;20049;-71
2020/12/23 08:13:55;;;;;;;30.35;16.35;;;;;;;7.99;70.99;95370.91;4190435;28;20061;-69
2020/12/23 08:16:07;;;;;;;23.08;14.68;;;;;;;8.07;70.84;95379.91;4159516;28;20475;-70
2020/12/23 08:18:11;;;;;;;27.00;14.20;;;;;;;8.24;70.76;95378.47;4159097;28;20143;-71
2020/12/23 08:20:13;;;;;;;;;;;;;;;8.33;70.93;95370.72;4158369;28;20428;-70
2020/12/23 08:22:15;;;;;;;19.65;11.48;;;;;;;8.43;70.06;95372.56;4156495;28;19940;-71
2020/12/23 08:24:16;;;;;;;15.60;9.32;;;;;;;8.52;69.72;95375.25;4158734;28;20046;-69
2020/12/23 08:26:17;;;;;;;16.83;9.48;;;;;;;8.64;69.52;95377.78;4158911;28;20477;-69
2020/12/23 08:28:21;;;;;;;15.80;8.88;;;;;;;8.71;69.13;95377.13;4151865;28;20105;-70
2020/12/23 08:30:32;;;;;;;14.93;8.98;;;;;;;8.70;67.87;95382.47;4146488;28;20126;-70
2020/12/23 08:32:36;;;;;;;13.70;7.70;;;;;;;8.72;67.67;95389.22;4174673;28;20055;-70
2020/12/23 08:34:37;;;;;;;;;;;;;;;8.76;67.30;95389.81;4175142;28;20659;-71
2020/12/23 08:36:39;;;;;;;13.05;9.18;;;;;;;8.73;66.62;95387.44;4175925;28;19927;-67
2020/12/23 08:38:41;;;;;;;17.52;10.45;;;;;;;8.81;66.29;95375.38;4175933;28;20110;-69
2020/12/23 08:40:47;;;;;;;19.75;8.73;;;;;;;8.85;67.33;95360.25;4175313;28;20212;-71
2020/12/23 08:42:57;;;;;;;14.35;8.13;;;;;;;8.87;66.54;95375.81;4173247;28;20123;-78
2020/12/23 08:44:59;;;;;;;13.05;8.50;;;;;;;9.00;65.97;95377.22;4173275;28;20064;-78
2020/12/23 08:47:00;;;;;;;14.02;8.13;;;;;;;9.34;65.57;95358.59;4157944;28;20061;-78
2020/12/23 08:49:01;;;;;;;9.95;7.70;;;;;;;9.42;64.63;95361.38;4175294;28;20146;-78
2020/12/23 08:51:04;;;;;;;16.85;8.68;;;;;;;9.51;64.39;95364.16;4174799;28;20056;-78
2020/12/23 08:53:05;;;;;;;13.65;7.93;;;;;;;9.74;64.41;95364.69;4175705;28;20546;-77
2020/12/23 08:55:20;;;;;;;17.63;9.30;;;;;;;9.77;63.16;95356.59;4177719;28;20623;-78
2020/12/23 08:57:27;;;;;;;16.05;8.30;;;;;;;9.79;63.73;95352.88;4154906;28;20083;-80
2020/12/23 08:59:38;;;;;;;16.90;8.18;;;;;;;9.78;63.21;95342.53;4174742;28;20473;-80
2020/12/23 09:01:45;;;;;;;15.75;8.70;;;;;;;9.78;63.29;95335.50;4180529;28;20108;-77
2020/12/23 09:03:59;;;;;;;15.38;8.07;;;;;;;9.80;62.79;95332.75;4168819;28;20698;-78
2020/12/23 09:06:17;;;;;;;15.65;8.43;;;;;;;9.80;62.77;95333.56;4158175;28;20054;-79
2020/12/23 09:08:29;;;;;;;11.85;7.68;;;;;;;9.93;62.54;95327.22;4164292;28;20045;-77
2020/12/23 09:10:31;;;;;;;16.80;8.05;;;;;;;9.89;62.07;95320.63;4175392;28;20092;-77
2020/12/23 09:12:32;;;;;;;13.95;7.85;;;;;;;9.72;62.92;95322.13;4174986;28;20067;-79
2020/12/23 09:14:38;;;;;;;14.25;7.28;;;;;;;9.83;62.46;95317.59;4175001;28;20457;-70
2020/12/23 09:16:51;;;;;;;14.30;7.85;;;;;;;9.95;62.08;95309.59;4173673;28;20127;-68
2020/12/23 09:18:53;;;;;;;10.60;7.68;;;;;;;10.08;62.26;95312.72;4173177;28;20075;-69
2020/12/23 09:21:01;;;;;;;10.52;6.95;;;;;;;10.10;61.46;95310.81;4156308;28;20137;-68
2020/12/23 09:23:07;;;;;;;10.52;7.03;;;;;;;10.18;61.67;95318.78;4173804;28;20077;-69
2020/12/23 09:25:26;;;;;;;13.63;6.68;;;;;;;10.35;60.97;95312.03;4173279;28;20071;-71
2020/12/23 09:27:29;;;;;;;14.10;7.25;;;;;;;10.31;61.27;95320.31;4171967;28;20060;-69
2020/12/23 09:29:43;;;;;;;9.77;6.60;;;;;;;10.41;61.44;95315.84;4177046;28;20056;-72
2020/12/23 09:31:55;;;;;;;9.50;5.82;;;;;;;10.54;60.86;95311.13;4182588;28;20053;-72
2020/12/23 09:33:57;;;;;;;8.07;5.38;;;;;;;10.44;60.33;95321.63;4179668;28;20481;-67